Time;durP1;ratioP1;P1;durP2;ratioP2;P2;SDS_P1;SDS_P2;PMS_P1;PMS_P2;Temp;Humidity;BMP_temperature;BMP_pressure;BME280_temperature;BME280_humidity;BME280_pressure;Samples;Min_cycle;Max_cycle;Signal;HPM_P1;HPM_P2
2022/05/26 00:04:08;;;;;;;3.70;1.10;;;14.70;99.90;;;;;;12371168;28;20100;-81
2022/05/26 00:10:11;;;;;;;4.15;0.98;;;14.70;99.90;;;;;;12357647;28;20677;-82
2022/05/26 00:16:13;;;;;;;4.25;0.88;;;14.70;99.90;;;;;;12363218;28;20116;-81
2022/05/26 00:22:15;;;;;;;4.90;1.25;;;14.70;99.90;;;;;;12384159;28;20050;-81
2022/05/26 00:28:17;;;;;;;5.05;1.23;;;14.70;99.90;;;;;;12359496;28;20050;-80
2022/05/26 00:34:19;;;;;;;4.25;1.25;;;14.80;99.90;;;;;;12377115;28;20054;-81
2022/05/26 00:40:21;;;;;;;4.88;1.30;;;14.70;99.90;;;;;;12367587;28;20416;-80
2022/05/26 00:46:37;;;;;;;3.15;1.05;;;14.70;99.90;;;;;;12370895;28;20066;-80
2022/05/26 00:53:01;;;;;;;3.60;1.60;;;14.70;99.90;;;;;;12381191;28;20042;-81
2022/05/26 00:59:30;;;;;;;6.93;1.80;;;14.80;99.90;;;;;;12380838;28;20050;-82
2022/05/26 01:05:38;;;;;;;6.05;1.48;;;14.60;99.90;;;;;;12339356;28;20420;-81
2022/05/26 01:11:42;;;;;;;3.38;1.70;;;14.60;99.90;;;;;;12364894;28;20095;-81
2022/05/26 01:17:47;;;;;;;6.83;1.83;;;14.50;99.90;;;;;;12355788;28;20134;-81
2022/05/26 01:24:10;;;;;;;6.82;2.00;;;14.40;99.90;;;;;;12376899;28;20134;-81
2022/05/26 01:30:23;;;;;;;5.97;2.15;;;14.40;99.90;;;;;;12347327;28;20096;-81
2022/05/26 01:36:40;;;;;;;5.20;2.00;;;14.40;99.90;;;;;;12345109;28;20438;-81
2022/05/26 01:43:06;;;;;;;3.35;1.90;;;14.40;99.90;;;;;;12360969;28;20046;-81
2022/05/26 01:49:21;;;;;;;4.30;1.90;;;14.40;99.90;;;;;;12343635;28;20050;-79
2022/05/26 01:55:51;;;;;;;4.65;1.90;;;14.40;99.90;;;;;;12337109;28;20091;-80
2022/05/26 02:01:59;;;;;;;5.60;2.05;;;14.50;99.90;;;;;;12341692;28;20050;-80
2022/05/26 02:08:17;;;;;;;5.03;1.90;;;14.50;99.90;;;;;;12354839;28;20479;-80
2022/05/26 02:14:31;;;;;;;4.03;2.10;;;14.40;99.90;;;;;;12365457;28;20145;-81
2022/05/26 02:20:43;;;;;;;6.22;2.72;;;14.40;99.90;;;;;;12360417;28;20103;-80
2022/05/26 02:26:45;;;;;;;5.70;2.60;;;14.50;99.90;;;;;;12360102;28;20054;-81
2022/05/26 02:32:53;;;;;;;6.65;3.42;;;14.40;99.90;;;;;;12371344;28;20116;-80
2022/05/26 02:38:55;;;;;;;7.43;3.20;;;14.40;99.90;;;;;;12371452;28;20050;-80
2022/05/26 02:44:57;;;;;;;9.02;4.07;;;14.50;99.90;;;;;;12344396;28;20092;-80
2022/05/26 02:51:04;;;;;;;6.85;3.83;;;14.40;99.90;;;;;;12369289;28;20157;-80
2022/05/26 02:57:24;;;;;;;6.57;4.35;;;14.40;99.90;;;;;;12370001;28;20108;-82
2022/05/26 03:03:33;;;;;;;7.25;4.10;;;14.30;99.90;;;;;;12376269;28;20046;-80
2022/05/26 03:09:36;;;;;;;5.95;4.00;;;14.30;99.90;;;;;;12362350;28;20664;-81
2022/05/26 03:15:40;;;;;;;6.60;4.28;;;14.40;99.90;;;;;;12372144;28;20055;-81
2022/05/26 03:21:43;;;;;;;7.82;4.50;;;14.30;99.90;;;;;;12368186;28;20050;-80
2022/05/26 03:27:44;;;;;;;6.90;4.43;;;14.30;99.90;;;;;;12373054;28;20520;-81
2022/05/26 03:46:33;;;;;;;6.75;4.55;;;14.40;99.90;;;;;;12379944;28;20149;-82
2022/05/26 03:52:35;;;;;;;9.93;4.30;;;14.40;99.90;;;;;;12376395;28;20042;-81
2022/05/26 03:58:36;;;;;;;7.82;4.28;;;14.30;99.90;;;;;;12367001;28;20556;-80
2022/05/26 04:04:38;;;;;;;8.45;4.25;;;14.20;99.90;;;;;;12375769;28;20092;-81
2022/05/26 04:10:40;;;;;;;5.60;3.85;;;14.20;99.90;;;;;;12382671;28;20466;-82
2022/05/26 04:16:42;;;;;;;8.73;4.35;;;14.30;99.90;;;;;;12372605;28;20132;-81
2022/05/26 04:22:44;;;;;;;7.85;4.20;;;14.10;99.90;;;;;;12362280;28;20046;-82
2022/05/26 04:28:46;;;;;;;7.05;4.95;;;14.30;99.90;;;;;;12395514;28;20050;-83
2022/05/26 04:34:48;;;;;;;8.80;5.30;;;14.20;99.90;;;;;;12392515;28;20066;-81
2022/05/26 04:41:01;;;;;;;8.70;5.20;;;14.00;99.90;;;;;;12393671;28;20038;-80
2022/05/26 04:47:04;;;;;;;9.13;5.55;;;13.90;99.90;;;;;;12397356;28;20148;-81
2022/05/26 04:53:05;;;;;;;8.30;5.78;;;13.70;99.90;;;;;;12386174;28;20049;-81
2022/05/26 04:59:08;;;;;;;11.10;6.13;;;13.60;99.90;;;;;;12378680;28;20492;-81
2022/05/26 05:05:10;;;;;;;9.60;6.25;;;13.50;99.90;;;;;;12367246;28;20111;-81
2022/05/26 05:11:13;;;;;;;8.60;7.03;;;13.50;99.90;;;;;;12364108;28;20177;-80
2022/05/26 05:17:18;;;;;;;11.27;7.03;;;13.50;99.90;;;;;;12368790;28;20042;-80
2022/05/26 05:23:21;;;;;;;11.32;7.28;;;13.70;99.90;;;;;;12356562;28;20549;-79
2022/05/26 05:29:26;;;;;;;11.57;7.47;;;13.70;99.90;;;;;;12361627;28;20053;-80
2022/05/26 05:35:45;;;;;;;12.02;7.50;;;13.80;99.90;;;;;;12375076;28;20061;-80
2022/05/26 05:41:47;;;;;;;13.50;8.20;;;13.80;99.90;;;;;;12373033;28;20049;-79
2022/05/26 05:47:49;;;;;;;12.00;8.40;;;13.80;99.90;;;;;;12361297;28;20116;-80
2022/05/26 05:53:51;;;;;;;12.43;8.95;;;13.80;99.90;;;;;;12376497;28;20633;-80
2022/05/26 05:59:54;;;;;;;14.63;8.38;;;13.80;99.90;;;;;;12361547;28;20105;-81
2022/05/26 06:05:59;;;;;;;16.73;9.27;;;13.80;99.90;;;;;;12350692;28;20061;-81
2022/05/26 06:12:01;;;;;;;15.88;9.82;;;13.90;99.90;;;;;;12359324;28;20141;-80
2022/05/26 06:18:06;;;;;;;14.15;10.00;;;14.00;99.90;;;;;;12360070;28;20051;-80
2022/05/26 06:24:10;;;;;;;15.93;10.30;;;14.10;99.90;;;;;;12358385;28;20046;-81
2022/05/26 06:30:15;;;;;;;14.50;9.88;;;14.20;99.90;;;;;;12362816;28;20054;-81
2022/05/26 06:42:38;;;;;;;14.68;10.05;;;14.30;99.90;;;;;;12374543;28;20056;-81
2022/05/26 06:48:40;;;;;;;16.35;9.65;;;14.40;99.90;;;;;;12373746;28;20045;-80
2022/05/26 06:54:45;;;;;;;13.15;9.55;;;14.50;99.90;;;;;;12371716;28;20042;-81
2022/05/26 07:00:47;;;;;;;16.98;9.40;;;14.50;99.90;;;;;;12345238;28;20567;-81
2022/05/26 07:06:53;;;;;;;14.25;9.85;;;14.50;99.90;;;;;;12375831;28;20403;-81
2022/05/26 07:12:55;;;;;;;15.15;9.02;;;14.50;99.90;;;;;;12373982;28;20100;-80
2022/05/26 07:18:57;;;;;;;15.05;9.40;;;14.80;99.90;;;;;;12377285;28;20140;-82
2022/05/26 07:24:59;;;;;;;18.60;10.10;;;14.70;99.90;;;;;;12373927;28;20100;-81
2022/05/26 07:31:01;;;;;;;12.35;7.97;;;14.90;99.90;;;;;;12364823;28;20050;-81
2022/05/26 07:43:25;;;;;;;11.07;5.88;;;15.00;99.90;;;;;;12364212;28;20258;-80
2022/05/26 07:49:27;;;;;;;11.80;5.80;;;15.00;99.90;;;;;;12369934;28;20093;-80
2022/05/26 07:55:31;;;;;;;14.30;5.35;;;15.20;99.90;;;;;;12376994;28;20293;-82
2022/05/26 08:01:33;;;;;;;;;;;15.30;99.90;;;;;;12373736;28;20070;-80
2022/05/26 08:07:35;;;;;;;10.10;4.80;;;15.30;99.90;;;;;;12371750;28;19976;-80
2022/05/26 08:13:37;;;;;;;9.82;4.13;;;15.40;99.90;;;;;;12370115;28;20098;-80
2022/05/26 08:19:39;;;;;;;8.50;3.00;;;15.50;99.90;;;;;;12376140;28;20100;-80
2022/05/26 08:25:41;;;;;;;8.88;3.20;;;15.70;99.90;;;;;;12368671;28;20047;-80
2022/05/26 08:31:43;;;;;;;9.05;3.00;;;15.90;99.90;;;;;;12361142;28;20042;-80
2022/05/26 08:37:45;;;;;;;9.48;3.47;;;15.70;99.90;;;;;;12379801;28;20081;-80
2022/05/26 08:44:11;;;;;;;11.27;3.75;;;15.70;99.90;;;;;;12370574;28;20042;-80
2022/05/26 08:50:19;;;;;;;10.75;4.47;;;15.90;99.90;;;;;;12374286;28;20898;-83
2022/05/26 08:56:25;;;;;;;8.85;3.60;;;16.10;99.90;;;;;;12349228;28;20050;-83
2022/05/26 09:02:34;;;;;;;6.68;3.17;;;16.20;99.90;;;;;;12366934;28;20054;-82
2022/05/26 09:15:10;;;;;;;6.88;3.13;;;16.30;99.90;;;;;;12379774;28;20047;-82
2022/05/26 09:21:21;;;;;;;6.55;2.97;;;16.40;99.90;;;;;;12384404;28;20062;-82
2022/05/26 09:27:28;;;;;;;6.75;2.80;;;16.40;99.90;;;;;;12375479;28;20058;-82
2022/05/26 09:33:31;;;;;;;6.72;2.95;;;16.40;99.90;;;;;;12373531;28;21037;-82
2022/05/26 09:39:42;;;;;;;7.47;2.77;;;16.40;99.90;;;;;;12357361;28;20062;-83
2022/05/26 09:45:47;;;;;;;7.65;2.70;;;16.50;99.90;;;;;;12371756;28;20820;-83
2022/05/26 09:51:50;;;;;;;11.68;3.65;;;16.40;99.90;;;;;;12378150;28;20046;-83
2022/05/26 09:58:07;;;;;;;8.02;3.00;;;16.30;99.90;;;;;;12376588;28;20057;-82
2022/05/26 10:04:17;;;;;;;10.45;3.00;;;16.20;99.90;;;;;;12374572;28;20484;-82
2022/05/26 10:10:51;;;;;;;9.63;3.20;;;16.30;99.90;;;;;;12372113;28;20050;-81
2022/05/26 10:16:57;;;;;;;8.10;3.17;;;16.70;99.90;;;;;;12354870;28;20422;-83
2022/05/26 10:23:23;;;;;;;7.63;2.70;;;17.00;99.90;;;;;;12375255;28;20054;-82
2022/05/26 10:29:31;;;;;;;7.80;2.25;;;17.30;99.90;;;;;;12364321;28;20056;-82
2022/05/26 10:36:02;;;;;;;4.95;2.15;;;17.70;99.90;;;;;;12375749;28;20664;-82
2022/05/26 10:42:24;;;;;;;5.78;1.95;;;17.70;99.90;;;;;;12371437;28;20057;-81
2022/05/26 10:48:41;;;;;;;7.35;2.50;;;18.00;99.90;;;;;;12372772;28;20061;-80
2022/05/26 10:55:14;;;;;;;10.07;2.80;;;18.40;99.90;;;;;;12372516;28;20054;-82
2022/05/26 11:01:28;;;;;;;7.13;2.85;;;17.90;99.90;;;;;;12362647;28;20100;-81
2022/05/26 11:07:41;;;;;;;8.23;2.30;;;18.70;99.90;;;;;;12347769;28;20107;-82
2022/05/26 11:13:55;;;;;;;7.70;2.83;;;18.60;99.90;;;;;;12341547;28;20104;-79
2022/05/26 11:20:05;;;;;;;6.72;2.33;;;18.00;99.90;;;;;;12368506;28;20484;-81
2022/05/26 11:26:44;;;;;;;11.68;2.42;;;17.50;99.90;;;;;;12294306;28;20836;-82
2022/05/26 11:39:28;;;;;;;7.20;1.88;;;17.90;99.90;;;;;;12331364;28;20059;-81
2022/05/26 11:45:33;;;;;;;6.75;1.40;;;18.00;99.90;;;;;;12326463;28;20042;-81
2022/05/26 11:51:39;;;;;;;8.25;1.60;;;17.90;99.90;;;;;;12312822;28;20082;-81
2022/05/26 11:57:40;;;;;;;5.55;1.60;;;18.40;99.90;;;;;;12312692;28;20051;-83
2022/05/26 12:03:55;;;;;;;5.68;1.48;;;18.90;99.90;;;;;;12328098;28;20105;-82
2022/05/26 12:09:59;;;;;;;9.32;1.88;;;19.10;99.90;;;;;;12328014;28;20096;-81
2022/05/26 12:16:22;;;;;;;6.30;2.22;;;18.80;99.90;;;;;;12317520;28;20114;-81
2022/05/26 12:22:36;;;;;;;6.88;1.80;;;19.00;99.90;;;;;;12329381;28;20050;-82
2022/05/26 12:28:38;;;;;;;7.90;2.05;;;18.90;99.90;;;;;;12332458;28;20069;-82
2022/05/26 12:34:58;;;;;;;7.95;1.73;;;18.70;99.90;;;;;;12315637;28;20055;-83
2022/05/26 12:41:09;;;;;;;5.38;2.08;;;18.60;99.90;;;;;;12305803;28;20046;-81
2022/05/26 12:47:29;;;;;;;10.10;2.05;;;18.70;99.90;;;;;;13027910;23;20128;-83
2022/05/26 12:53:37;;;;;;;6.75;1.98;;;18.70;99.90;;;;;;12406073;23;20864;-36
2022/05/26 12:59:50;;;;;;;6.50;1.58;;;18.70;99.90;;;;;;12366232;28;20575;-36
2022/05/26 13:06:00;;;;;;;9.65;1.85;;;18.10;99.90;;;;;;12367119;28;20070;-38
2022/05/26 13:12:05;;;;;;;10.13;2.45;;;18.20;99.90;;;;;;12363048;28;20050;-36
2022/05/26 13:18:23;;;;;;;8.07;2.28;;;18.50;99.90;;;;;;12367555;28;20043;-37
2022/05/26 13:24:33;;;;;;;4.60;1.95;;;18.50;99.90;;;;;;12362844;28;20042;-38
2022/05/26 13:37:32;;;;;;;7.55;2.38;;;18.80;99.90;;;;;;12360945;28;20104;-38
2022/05/26 13:43:48;;;;;;;10.98;2.88;;;19.00;99.90;;;;;;12347191;28;20699;-38
2022/05/26 13:57:43;;;;;;;5.38;2.40;;;18.10;99.90;;;;;;13965417;23;20131;-82
2022/05/26 14:11:08;;;;;;;8.98;3.67;;;18.00;99.90;;;;;;12603922;23;20050;-84
2022/05/26 14:17:25;;;;;;;10.13;4.40;;;18.00;99.90;;;;;;12329919;28;20055;-81
2022/05/26 14:23:30;;;;;;;9.40;3.85;;;17.80;99.90;;;;;;12310205;28;20043;-82
2022/05/26 14:29:34;;;;;;;7.25;3.55;;;17.60;99.90;;;;;;12317672;28;20058;-82
2022/05/26 14:35:36;;;;;;;10.00;4.20;;;17.60;99.90;;;;;;12332383;28;20477;-81
2022/05/26 14:41:38;;;;;;;9.27;4.63;;;17.60;99.90;;;;;;12304407;28;20514;-81
2022/05/26 14:47:40;;;;;;;11.75;4.65;;;17.50;99.90;;;;;;12333266;28;20544;-82
2022/05/26 15:00:08;;;;;;;9.57;4.65;;;18.40;99.90;;;;;;12342804;28;20050;-82
2022/05/26 15:26:31;;;;;;;9.32;4.47;;;18.00;99.90;;;;;;5919064;23;20230;-38
2022/05/26 15:32:35;;;;;;;10.02;4.53;;;17.80;99.90;;;;;;12164255;29;20064;-37
2022/05/26 15:39:15;;;;;;;13.73;5.07;;;17.80;99.90;;;;;;12184724;29;20460;-39
2022/05/26 15:45:24;;;;;;;7.53;4.18;;;17.80;99.90;;;;;;12209597;29;20063;-39
2022/05/26 15:51:27;;;;;;;8.65;5.03;;;17.80;99.90;;;;;;12210195;29;20055;-38
2022/05/26 15:57:29;;;;;;;9.85;5.22;;;17.70;99.90;;;;;;12206612;29;20056;-40
2022/05/26 16:03:31;;;;;;;11.00;4.03;;;17.60;99.90;;;;;;12209672;29;20071;-39
2022/05/26 16:09:33;;;;;;;10.43;4.75;;;17.70;99.90;;;;;;12209698;29;20060;-38
2022/05/26 16:15:38;;;;;;;9.45;4.28;;;17.80;99.90;;;;;;12205749;29;20098;-38
2022/05/26 16:21:46;;;;;;;9.50;4.32;;;17.90;99.90;;;;;;12206080;29;20056;-37
2022/05/26 16:27:49;;;;;;;8.13;4.60;;;17.80;99.90;;;;;;12176775;29;20115;-37
2022/05/26 16:33:52;;;;;;;8.27;4.82;;;17.90;99.90;;;;;;12163741;29;20062;-37
2022/05/26 16:39:54;;;;;;;6.80;4.30;;;18.00;99.90;;;;;;12148833;29;20452;-36
2022/05/26 16:45:55;;;;;;;7.90;4.63;;;18.00;99.90;;;;;;12313596;23;20064;-83
2022/05/26 16:52:00;;;;;;;10.05;4.32;;;17.90;99.90;;;;;;12185150;29;20123;-84
2022/05/26 16:58:02;;;;;;;9.38;4.45;;;17.80;99.90;;;;;;12188522;29;20052;-83
2022/05/26 17:10:28;;;;;;;7.28;4.68;;;17.70;99.90;;;;;;12217705;23;20415;-83
2022/05/26 17:23:01;;;;;;;6.07;4.03;;;17.90;99.90;;;;;;12150609;29;20131;-82
2022/05/26 17:29:03;;;;;;;8.18;4.22;;;17.90;99.90;;;;;;12149828;29;20056;-83
2022/05/26 17:35:05;;;;;;;10.45;4.47;;;17.80;99.90;;;;;;12143490;29;20056;-84
2022/05/26 17:41:35;;;;;;;8.15;4.32;;;17.70;99.90;;;;;;12142482;29;20527;-84
2022/05/26 17:47:37;;;;;;;9.37;4.43;;;17.70;99.90;;;;;;12143354;29;20476;-84
2022/05/26 17:53:39;;;;;;;12.27;4.35;;;17.60;99.90;;;;;;12142356;29;20303;-84
2022/05/26 18:06:11;;;;;;;9.02;3.38;;;17.60;99.90;;;;;;12146044;29;20075;-83
2022/05/26 18:12:13;;;;;;;5.60;2.70;;;17.60;99.90;;;;;;12372901;23;20138;-82
2022/05/26 18:18:16;;;;;;;11.52;3.00;;;17.60;99.90;;;;;;12144365;29;20779;-83
2022/05/26 18:24:19;;;;;;;14.18;3.58;;;17.60;99.90;;;;;;12159653;29;20704;-82
2022/05/26 18:30:21;;;;;;;11.20;2.83;;;17.50;99.90;;;;;;12147874;29;20460;-82
2022/05/26 18:36:23;;;;;;;7.28;2.78;;;17.50;99.90;;;;;;12134001;29;20512;-83
2022/05/26 18:42:25;;;;;;;7.22;3.00;;;17.40;99.90;;;;;;12146582;29;20517;-82
2022/05/26 18:48:26;;;;;;;5.97;2.55;;;17.40;99.90;;;;;;12148349;29;20154;-81
2022/05/26 18:54:28;;;;;;;7.97;2.65;;;17.30;99.90;;;;;;12129688;29;20504;-82
2022/05/26 19:00:30;;;;;;;7.13;2.20;;;17.30;99.90;;;;;;12145559;29;20056;-82
2022/05/26 19:06:34;;;;;;;11.15;2.25;;;17.20;99.90;;;;;;12148054;29;20127;-82
2022/05/26 19:12:36;;;;;;;8.73;2.67;;;17.20;99.90;;;;;;12161325;29;20064;-82
2022/05/26 19:18:39;;;;;;;6.63;2.17;;;17.20;99.90;;;;;;12151436;29;20183;-82
2022/05/26 19:24:42;;;;;;;6.05;2.40;;;17.20;99.90;;;;;;12163634;29;20135;-83
2022/05/26 19:30:52;;;;;;;8.10;2.35;;;17.10;99.90;;;;;;12162688;29;20476;-82
2022/05/26 19:36:54;;;;;;;9.10;2.30;;;17.20;99.90;;;;;;12162690;29;20056;-81
2022/05/26 19:42:56;;;;;;;7.32;2.28;;;17.20;99.90;;;;;;12157109;29;20303;-81
2022/05/26 19:48:58;;;;;;;5.35;2.10;;;17.30;99.90;;;;;;12148588;29;20831;-81
2022/05/26 19:54:59;;;;;;;6.28;2.50;;;17.20;99.90;;;;;;12157672;29;20099;-81
2022/05/26 20:01:22;;;;;;;9.13;2.50;;;17.10;99.90;;;;;;12161222;29;20626;-82
2022/05/26 20:07:23;;;;;;;6.57;2.70;;;16.90;99.90;;;;;;12162624;29;20128;-83
2022/05/26 20:13:25;;;;;;;8.18;2.40;;;16.90;99.90;;;;;;12162231;29;20091;-81
2022/05/26 20:19:27;;;;;;;8.73;2.70;;;16.80;99.90;;;;;;12152454;29;20090;-82
2022/05/26 20:25:29;;;;;;;8.65;2.50;;;16.70;99.90;;;;;;12149584;29;20053;-82
2022/05/26 20:31:32;;;;;;;8.63;2.88;;;16.70;99.90;;;;;;12156007;29;20061;-81
2022/05/26 20:37:33;;;;;;;6.85;3.13;;;16.60;99.90;;;;;;12144849;29;20423;-81
2022/05/26 20:43:36;;;;;;;10.50;3.20;;;16.60;99.90;;;;;;12168936;29;20103;-83
2022/05/26 20:49:45;;;;;;;7.90;4.63;;;16.60;99.90;;;;;;12150102;29;20603;-81
2022/05/26 20:55:52;;;;;;;13.20;6.07;;;16.40;99.90;;;;;;12132125;29;20099;-81
2022/05/26 21:01:54;;;;;;;10.95;7.72;;;16.20;99.90;;;;;;12135299;29;20057;-82
2022/05/26 21:07:57;;;;;;;15.18;8.65;;;15.80;99.90;;;;;;12137007;29;20056;-82
2022/05/26 21:14:01;;;;;;;13.77;9.15;;;15.60;99.90;;;;;;12133050;29;20051;-81
2022/05/26 21:20:04;;;;;;;14.73;9.40;;;15.40;99.90;;;;;;12134291;29;20064;-83
2022/05/26 21:26:06;;;;;;;14.35;8.80;;;15.40;99.90;;;;;;12144162;29;20060;-81
2022/05/26 21:32:09;;;;;;;16.00;8.55;;;15.40;99.90;;;;;;12135871;29;20159;-80
2022/05/26 21:38:10;;;;;;;16.27;7.80;;;15.30;99.90;;;;;;12138645;29;20564;-82
2022/05/26 21:44:12;;;;;;;14.35;8.20;;;15.20;99.90;;;;;;12154858;29;20592;-81
2022/05/26 21:50:15;;;;;;;13.82;7.60;;;15.20;99.90;;;;;;12147769;29;20053;-81
2022/05/26 21:56:16;;;;;;;13.05;7.28;;;15.10;99.90;;;;;;12133954;29;20072;-81
2022/05/26 22:02:19;;;;;;;10.90;7.43;;;15.10;99.90;;;;;;12133744;29;20578;-81
2022/05/26 22:14:43;;;;;;;11.90;5.38;;;15.10;99.90;;;;;;12148048;29;20777;-82
2022/05/26 22:20:49;;;;;;;13.23;5.93;;;15.10;99.90;;;;;;12132771;29;20563;-81
2022/05/26 22:26:51;;;;;;;13.57;5.88;;;15.10;99.90;;;;;;12132367;29;20112;-82
2022/05/26 22:32:53;;;;;;;11.60;5.30;;;15.10;99.90;;;;;;12125942;29;20053;-81
2022/05/26 22:38:56;;;;;;;7.22;4.43;;;15.20;99.90;;;;;;12153521;29;20079;-82
2022/05/26 22:44:58;;;;;;;12.60;4.15;;;15.20;99.90;;;;;;12149549;29;20108;-82
2022/05/26 22:51:00;;;;;;;16.98;4.95;;;15.20;99.90;;;;;;12141735;29;20084;-81
2022/05/26 22:57:03;;;;;;;12.00;3.90;;;15.20;99.90;;;;;;12140777;29;20489;-82
2022/05/26 23:03:05;;;;;;;16.95;5.65;;;15.10;99.90;;;;;;12153582;29;20123;-82
2022/05/26 23:09:06;;;;;;;17.42;5.15;;;15.10;99.90;;;;;;12150313;29;20051;-82
2022/05/26 23:15:11;;;;;;;16.23;5.47;;;14.90;99.90;;;;;;12139916;29;20111;-82
2022/05/26 23:21:14;;;;;;;;;;;14.80;99.90;;;;;;12146932;29;20064;-81
2022/05/26 23:27:16;;;;;;;17.20;6.50;;;14.90;99.90;;;;;;12151314;29;19931;-80
2022/05/26 23:33:18;;;;;;;14.52;6.45;;;14.80;99.90;;;;;;12148283;29;20068;-81
2022/05/26 23:39:20;;;;;;;11.85;6.50;;;14.80;99.90;;;;;;12145109;29;20113;-81
2022/05/26 23:45:21;;;;;;;11.48;6.97;;;14.70;99.90;;;;;;12142951;29;20064;-80
2022/05/26 23:51:23;;;;;;;15.65;6.97;;;14.70;99.90;;;;;;12129350;29;20057;-80
